createdAt,value
2019-01-12T00:02:01.589Z,30.47
2019-01-12T00:04:49.587Z,33.77
2019-01-12T00:07:37.588Z,26.17
2019-01-12T00:10:25.632Z,27.07
2019-01-12T00:13:13.549Z,25.17
2019-01-12T00:16:01.674Z,31.27
2019-01-12T00:18:49.725Z,27.93
2019-01-12T00:21:37.690Z,27.63
2019-01-12T00:24:31.585Z,26.63
2019-01-12T00:27:15.074Z,29.23
2019-01-12T00:30:02.785Z,26.57
2019-01-12T00:32:50.705Z,20.73
2019-01-12T00:35:38.741Z,26.23
2019-01-12T00:38:26.954Z,24.17
2019-01-12T00:41:14.516Z,23.33
2019-01-12T00:44:02.045Z,25.90
2019-01-12T00:46:49.989Z,23.63
2019-01-12T00:49:37.965Z,26.43
2019-01-12T00:52:26.001Z,25.53
2019-01-12T00:55:13.945Z,23.93
2019-01-12T00:58:02.120Z,23.73
2019-01-12T01:00:50.264Z,29.30
2019-01-12T01:03:38.152Z,27.93
2019-01-12T01:06:25.898Z,30.00
2019-01-12T01:09:13.449Z,26.73
2019-01-12T01:12:01.379Z,28.10
2019-01-12T01:14:49.259Z,27.67
2019-01-12T01:17:37.181Z,27.50
2019-01-12T01:20:24.803Z,28.10
2019-01-12T01:23:12.963Z,28.50
2019-01-12T01:26:00.875Z,26.77
2019-01-12T01:28:48.613Z,26.80
2019-01-12T01:31:36.803Z,26.87
2019-01-12T01:34:25.100Z,27.87
2019-01-12T01:37:12.655Z,31.03
2019-01-12T01:40:00.880Z,25.87
2019-01-12T01:42:49.118Z,27.43
2019-01-12T01:45:37.178Z,29.20
2019-01-12T01:48:25.141Z,32.53
2019-01-12T01:51:12.741Z,27.30
2019-01-12T01:54:00.682Z,33.40
2019-01-12T01:56:48.695Z,25.17
2019-01-12T01:59:36.797Z,27.37
2019-01-12T02:02:24.680Z,25.60
2019-01-12T02:05:12.848Z,24.93
2019-01-12T02:08:00.829Z,29.97
2019-01-12T02:10:48.718Z,23.30
2019-01-12T02:13:36.347Z,22.90
2019-01-12T02:16:23.991Z,23.27
2019-01-12T02:19:11.523Z,28.00
2019-01-12T02:21:59.714Z,24.53
2019-01-12T02:24:47.579Z,29.27
2019-01-12T02:27:35.311Z,25.47
2019-01-12T02:30:24.568Z,24.27
2019-01-12T02:33:12.665Z,24.47
2019-01-12T02:36:00.583Z,24.63
2019-01-12T02:38:48.497Z,23.37
2019-01-12T02:41:36.607Z,24.47
2019-01-12T02:44:24.388Z,24.60
2019-01-12T02:47:12.395Z,25.00
2019-01-12T02:50:00.768Z,25.27
2019-01-12T02:52:48.806Z,23.07
2019-01-12T02:55:36.635Z,24.33
2019-01-12T02:58:24.457Z,20.33
2019-01-12T03:01:12.353Z,20.90
2019-01-12T03:04:00.553Z,20.47
2019-01-12T03:06:48.028Z,22.10
2019-01-12T03:09:35.846Z,20.63
2019-01-12T03:12:23.528Z,20.53
2019-01-12T03:15:14.269Z,20.70
2019-01-12T03:18:02.066Z,20.13
2019-01-12T03:20:49.990Z,18.63
2019-01-12T03:23:37.974Z,15.97
2019-01-12T03:26:26.024Z,19.30
2019-01-12T03:29:13.818Z,18.23
2019-01-12T03:32:01.854Z,21.63
2019-01-12T03:34:49.957Z,19.57
2019-01-12T03:37:38.141Z,20.90
2019-01-12T03:40:26.196Z,19.67
2019-01-12T03:43:14.268Z,19.10
2019-01-12T03:46:01.794Z,19.10
2019-01-12T03:48:49.673Z,16.73
2019-01-12T03:51:37.540Z,20.93
2019-01-12T03:54:25.368Z,20.30
2019-01-12T03:57:12.935Z,18.70
2019-01-12T04:00:00.713Z,18.07
2019-01-12T04:02:49.115Z,14.03
2019-01-12T04:05:37.187Z,17.43
2019-01-12T04:08:25.316Z,15.50
2019-01-12T04:11:13.151Z,16.63
2019-01-12T04:14:01.086Z,16.10
2019-01-12T04:16:49.297Z,16.80
2019-01-12T04:19:36.902Z,15.77
2019-01-12T04:22:25.104Z,18.03
2019-01-12T04:25:12.897Z,17.47
2019-01-12T04:28:00.534Z,16.73
2019-01-12T04:30:48.326Z,16.70
2019-01-12T04:33:36.262Z,16.63
2019-01-12T04:36:24.223Z,18.13
2019-01-12T04:39:11.935Z,17.70
2019-01-12T04:41:59.858Z,17.57
2019-01-12T04:44:48.006Z,18.10
2019-01-12T04:47:35.851Z,19.17
2019-01-12T04:50:23.880Z,15.63
2019-01-12T04:53:11.934Z,17.50
2019-01-12T04:56:00.227Z,18.43
2019-01-12T04:58:48.260Z,16.90
2019-01-12T05:01:36.414Z,18.13
2019-01-12T05:04:24.259Z,17.83
2019-01-12T05:07:12.659Z,13.60
2019-01-12T05:10:00.381Z,15.73
2019-01-12T05:12:48.223Z,18.27
2019-01-12T05:15:35.776Z,14.73
2019-01-12T05:18:23.871Z,16.83
2019-01-12T05:21:11.439Z,16.17
2019-01-12T05:23:59.435Z,16.03
2019-01-12T05:26:47.169Z,13.47
2019-01-12T05:29:35.311Z,17.03
2019-01-12T05:32:23.042Z,15.63
2019-01-12T05:35:10.810Z,18.43
2019-01-12T05:37:58.794Z,16.93
2019-01-12T05:40:46.829Z,16.20
2019-01-12T05:43:34.723Z,15.50
2019-01-12T05:46:22.376Z,15.50
2019-01-12T05:49:09.931Z,18.40
2019-01-12T05:51:57.847Z,15.60
2019-01-12T05:54:45.727Z,15.90
2019-01-12T05:57:33.870Z,17.10
2019-01-12T06:00:22.876Z,17.47
2019-01-12T06:03:10.859Z,15.93
2019-01-12T06:05:58.732Z,16.33
2019-01-12T06:08:46.909Z,17.23
2019-01-12T06:11:35.105Z,16.30
2019-01-12T06:14:23.406Z,19.20
2019-01-12T06:17:11.508Z,16.40
2019-01-12T06:19:59.747Z,16.17
2019-01-12T06:22:47.923Z,15.47
2019-01-12T06:25:35.983Z,15.87
2019-01-12T06:28:23.782Z,16.87
2019-01-12T06:31:11.638Z,19.53
2019-01-12T06:33:59.780Z,19.50
2019-01-12T06:36:47.708Z,19.73
2019-01-12T06:39:35.541Z,22.20
2019-01-12T06:42:23.081Z,21.67
2019-01-12T06:45:12.152Z,20.93
2019-01-12T06:48:00.315Z,23.83
2019-01-12T06:50:48.598Z,22.27
2019-01-12T06:53:36.384Z,21.20
2019-01-12T06:56:23.816Z,21.77
2019-01-12T06:59:12.942Z,24.67
2019-01-12T07:02:01.193Z,22.53
2019-01-12T07:04:49.056Z,22.03
2019-01-12T07:07:36.980Z,24.23
2019-01-12T07:10:24.756Z,23.30
2019-01-12T07:13:12.486Z,22.47
2019-01-12T07:16:00.548Z,21.03
2019-01-12T07:18:48.421Z,20.90
2019-01-12T07:21:36.725Z,22.47
2019-01-12T07:24:25.187Z,24.97
2019-01-12T07:27:13.164Z,24.03
2019-01-12T07:30:01.206Z,27.67
2019-01-12T07:32:49.217Z,25.57
2019-01-12T07:35:36.946Z,22.87
2019-01-12T07:38:24.826Z,23.57
2019-01-12T07:41:12.745Z,22.30
2019-01-12T07:44:00.704Z,24.20
2019-01-12T07:46:48.836Z,25.10
2019-01-12T07:49:37.076Z,24.70
2019-01-12T07:52:24.703Z,22.63
2019-01-12T07:55:12.883Z,22.47
2019-01-12T07:58:01.205Z,21.67
2019-01-12T08:00:49.235Z,22.40
2019-01-12T08:03:37.096Z,18.87
2019-01-12T08:06:24.627Z,19.83
2019-01-12T08:09:12.436Z,23.37
2019-01-12T08:12:00.439Z,20.90
2019-01-12T08:14:48.597Z,20.00
2019-01-12T08:17:36.617Z,22.97
2019-01-12T08:20:25.067Z,21.97
2019-01-12T08:23:12.936Z,18.30
2019-01-12T08:26:01.109Z,19.93
2019-01-12T08:28:48.715Z,20.07
2019-01-12T08:31:36.762Z,18.70
2019-01-12T08:34:24.590Z,18.37
2019-01-12T08:37:12.806Z,14.60
2019-01-12T08:40:00.326Z,16.20
2019-01-12T08:42:48.559Z,15.33
2019-01-12T08:45:36.483Z,16.53
2019-01-12T08:48:24.281Z,17.90
2019-01-12T08:51:12.382Z,17.07
2019-01-12T08:54:00.770Z,16.80
2019-01-12T08:56:48.938Z,19.13
2019-01-12T08:59:36.844Z,20.80
2019-01-12T09:02:25.002Z,19.10
2019-01-12T09:05:12.881Z,20.77
2019-01-12T09:08:00.816Z,20.17
2019-01-12T09:10:48.438Z,21.53
2019-01-12T09:13:36.288Z,23.47
2019-01-12T09:16:24.601Z,22.77
2019-01-12T09:19:12.607Z,20.97
2019-01-12T09:22:00.588Z,23.37
2019-01-12T09:24:48.856Z,19.67
2019-01-12T09:27:36.501Z,21.93
2019-01-12T09:30:24.646Z,18.67
2019-01-12T09:33:12.895Z,21.97
2019-01-12T09:36:01.191Z,20.30
2019-01-12T09:38:49.374Z,17.00
2019-01-12T09:41:37.399Z,22.40
2019-01-12T09:44:25.512Z,17.30
2019-01-12T09:47:13.220Z,18.77
2019-01-12T09:50:01.520Z,19.17
2019-01-12T09:52:51.055Z,18.20
2019-01-12T09:55:39.186Z,17.87
2019-01-12T09:58:26.986Z,18.87
2019-01-12T10:01:15.030Z,21.03
2019-01-12T10:04:03.419Z,19.27
2019-01-12T10:07:04.126Z,20.90
2019-01-12T10:09:52.278Z,18.60
2019-01-12T10:12:39.899Z,19.23
2019-01-12T10:15:28.097Z,20.90
2019-01-12T10:18:16.376Z,19.53
2019-01-12T10:21:04.174Z,19.83
2019-01-12T10:23:52.186Z,19.40
2019-01-12T10:26:40.164Z,18.10
2019-01-12T10:29:28.371Z,17.93
2019-01-12T10:32:16.497Z,17.67
2019-01-12T10:35:04.837Z,20.27
2019-01-12T10:37:52.888Z,17.63
2019-01-12T10:40:40.864Z,18.37
2019-01-12T10:43:28.816Z,17.33
2019-01-12T10:46:16.728Z,16.27
2019-01-12T10:49:05.396Z,18.23
2019-01-12T10:51:53.528Z,16.43
2019-01-12T10:54:41.350Z,16.47
2019-01-12T10:57:29.276Z,17.17
2019-01-12T11:00:23.653Z,18.27
2019-01-12T11:03:11.723Z,16.97
2019-01-12T11:05:59.708Z,16.60
2019-01-12T11:08:47.900Z,18.13
2019-01-12T11:11:35.763Z,15.80
2019-01-12T11:14:23.945Z,15.93
2019-01-12T11:17:12.008Z,24.87
2019-01-12T11:20:00.227Z,22.17
2019-01-12T11:22:48.359Z,21.13
2019-01-12T11:25:42.576Z,19.63
2019-01-12T11:28:26.105Z,19.87
2019-01-12T11:31:19.743Z,20.20
2019-01-12T11:34:03.852Z,17.70
2019-01-12T11:36:51.765Z,19.57
2019-01-12T11:39:39.740Z,18.77
2019-01-12T11:42:27.571Z,21.10
2019-01-12T11:45:15.847Z,21.43
2019-01-12T11:48:03.977Z,20.60
2019-01-12T11:50:52.216Z,20.67
2019-01-12T11:53:40.868Z,20.50
2019-01-12T11:56:28.987Z,19.53
2019-01-12T11:59:16.994Z,20.60
2019-01-12T12:02:05.310Z,22.67
2019-01-12T12:04:53.427Z,19.87
2019-01-12T12:07:41.074Z,23.03
2019-01-12T12:10:29.526Z,24.10
2019-01-12T12:13:17.539Z,21.80
2019-01-12T12:16:05.516Z,20.53
2019-01-12T12:18:53.588Z,20.20
2019-01-12T12:21:41.359Z,19.40
2019-01-12T12:24:29.442Z,19.97
2019-01-12T12:27:17.444Z,19.40
2019-01-12T12:30:07.595Z,17.37
2019-01-12T12:32:55.450Z,23.10
2019-01-12T12:35:43.489Z,18.17
2019-01-12T12:38:31.347Z,17.47
2019-01-12T12:41:19.377Z,17.23
2019-01-12T12:44:07.418Z,16.20
2019-01-12T12:46:55.239Z,15.17
2019-01-12T12:49:43.021Z,16.23
2019-01-12T12:52:31.057Z,15.73
2019-01-12T12:55:19.417Z,16.73
2019-01-12T12:58:08.474Z,15.63
2019-01-12T13:00:56.604Z,17.40
2019-01-12T13:03:44.977Z,19.10
2019-01-12T13:06:33.219Z,19.30
2019-01-12T13:09:21.147Z,19.43
2019-01-12T13:12:09.080Z,18.63
2019-01-12T13:14:57.283Z,17.83
2019-01-12T13:17:45.558Z,19.80
2019-01-12T13:20:33.363Z,19.20
2019-01-12T13:23:21.729Z,20.10
2019-01-12T13:26:09.794Z,21.10
2019-01-12T13:28:57.427Z,17.80
2019-01-12T13:31:45.278Z,19.07
2019-01-12T13:34:32.916Z,16.63
2019-01-12T13:37:21.244Z,13.17
2019-01-12T13:40:10.706Z,13.87
2019-01-12T13:42:58.663Z,12.03
2019-01-12T13:45:46.201Z,15.03
2019-01-12T13:48:33.772Z,12.80
2019-01-12T13:51:21.801Z,10.93
2019-01-12T13:54:09.903Z,9.33
2019-01-12T13:56:58.023Z,10.53
2019-01-12T13:59:46.198Z,9.70
2019-01-12T14:02:34.358Z,11.17
2019-01-12T14:05:22.708Z,9.53
2019-01-12T14:08:10.603Z,10.87
2019-01-12T14:10:58.750Z,11.97
2019-01-12T14:13:47.092Z,12.53
2019-01-12T14:16:35.016Z,15.43
2019-01-12T14:19:22.937Z,12.80
2019-01-12T14:22:11.215Z,11.40
2019-01-12T14:24:59.462Z,14.03
2019-01-12T14:27:54.414Z,12.47
2019-01-12T14:30:37.345Z,13.47
2019-01-12T14:33:25.360Z,13.00
2019-01-12T14:36:13.330Z,14.47
2019-01-12T14:39:01.562Z,15.37
2019-01-12T14:41:49.706Z,18.50
2019-01-12T14:44:37.595Z,13.90
2019-01-12T14:47:25.510Z,16.37
2019-01-12T14:50:13.694Z,17.83
2019-01-12T14:53:01.203Z,13.37
2019-01-12T14:55:49.327Z,14.27
2019-01-12T14:58:37.666Z,15.77
2019-01-12T15:01:25.703Z,14.53
2019-01-12T15:04:13.746Z,14.80
2019-01-12T15:07:01.939Z,12.67
2019-01-12T15:09:49.814Z,11.83
2019-01-12T15:12:38.248Z,11.77
2019-01-12T15:15:26.301Z,10.00
2019-01-12T15:18:13.864Z,10.27
2019-01-12T15:21:01.750Z,13.90
2019-01-12T15:23:49.793Z,10.13
2019-01-12T15:26:37.706Z,11.27
2019-01-12T15:29:25.845Z,8.53
2019-01-12T15:32:14.080Z,7.57
2019-01-12T15:35:02.064Z,6.47
2019-01-12T15:37:50.139Z,6.10
2019-01-12T15:40:37.924Z,4.10
2019-01-12T15:43:25.829Z,3.80
2019-01-12T15:46:14.182Z,3.57
2019-01-12T15:49:01.640Z,4.07
2019-01-12T15:51:49.475Z,3.47
2019-01-12T15:54:37.688Z,5.03
2019-01-12T15:57:25.760Z,3.53
2019-01-12T16:00:19.385Z,4.07
2019-01-12T16:03:07.465Z,4.73
2019-01-12T16:05:55.018Z,6.10
2019-01-12T16:08:42.988Z,7.53
2019-01-12T16:11:31.193Z,7.67
2019-01-12T16:14:19.134Z,8.73
2019-01-12T16:17:06.939Z,9.00
2019-01-12T16:19:54.850Z,8.57
2019-01-12T16:22:42.764Z,8.40
2019-01-12T16:25:31.049Z,10.53
2019-01-12T16:28:23.173Z,9.03
2019-01-12T16:31:08.894Z,10.50
2019-01-12T16:33:56.602Z,6.90
2019-01-12T16:36:44.608Z,8.90
2019-01-12T16:39:32.489Z,6.03
2019-01-12T16:42:21.101Z,8.27
2019-01-12T16:45:08.839Z,3.90
2019-01-12T16:47:57.267Z,4.93
2019-01-12T16:50:45.349Z,4.63
2019-01-12T16:53:33.238Z,5.50
2019-01-12T16:56:23.624Z,3.47
2019-01-12T16:59:11.691Z,4.10
2019-01-12T17:02:00.251Z,2.80
2019-01-12T17:04:48.556Z,5.57
2019-01-12T17:07:36.777Z,3.37
2019-01-12T17:10:24.615Z,3.73
2019-01-12T17:13:12.639Z,3.90
2019-01-12T17:16:00.567Z,3.83
2019-01-12T17:18:48.917Z,5.23
2019-01-12T17:21:37.270Z,5.83
2019-01-12T17:24:25.309Z,5.03
2019-01-12T17:27:13.306Z,6.10
2019-01-12T17:30:01.467Z,5.57
2019-01-12T17:32:49.609Z,4.93
2019-01-12T17:35:37.447Z,8.53
2019-01-12T17:38:25.330Z,5.13
2019-01-12T17:41:13.472Z,5.70
2019-01-12T17:44:01.499Z,4.07
2019-01-12T17:46:49.857Z,4.63
2019-01-12T17:49:38.010Z,4.37
2019-01-12T17:52:26.060Z,4.90
2019-01-12T17:55:16.199Z,5.50
2019-01-12T17:58:04.229Z,3.67
2019-01-12T18:00:53.137Z,3.90
2019-01-12T18:03:41.516Z,3.27
2019-01-12T18:06:42.371Z,3.63
2019-01-12T18:09:30.278Z,3.90
2019-01-12T18:12:18.768Z,3.90
2019-01-12T18:15:09.222Z,5.50
2019-01-12T18:17:57.045Z,2.87
2019-01-12T18:20:44.938Z,4.03
2019-01-12T18:23:33.059Z,7.10
2019-01-12T18:26:21.459Z,4.53
2019-01-12T18:29:09.421Z,3.50
2019-01-12T18:31:57.046Z,4.30
2019-01-12T18:34:45.382Z,5.17
2019-01-12T18:37:36.566Z,4.13
2019-01-12T18:40:25.075Z,4.13
2019-01-12T18:43:12.942Z,4.43
2019-01-12T18:46:00.940Z,4.70
2019-01-12T18:48:48.904Z,6.23
2019-01-12T18:51:36.697Z,4.97
2019-01-12T18:54:24.816Z,4.60
2019-01-12T18:57:12.653Z,18.53
2019-01-12T19:00:00.846Z,3.93
2019-01-12T19:02:50.177Z,5.77
2019-01-12T19:05:38.330Z,4.80
2019-01-12T19:08:26.581Z,4.30
2019-01-12T19:11:14.482Z,3.90
2019-01-12T19:14:02.420Z,3.80
2019-01-12T19:16:50.636Z,6.20
2019-01-12T19:19:38.160Z,5.90
2019-01-12T19:22:26.316Z,4.70
2019-01-12T19:25:14.504Z,5.87
2019-01-12T19:28:02.364Z,5.63
2019-01-12T19:30:50.248Z,3.97
2019-01-12T19:33:38.058Z,5.03
2019-01-12T19:36:25.944Z,4.93
2019-01-12T19:39:14.071Z,5.17
2019-01-12T19:42:01.930Z,4.73
2019-01-12T19:44:50.882Z,5.40
2019-01-12T19:47:38.599Z,6.23
2019-01-12T19:50:27.262Z,4.70
2019-01-12T19:53:14.966Z,5.67
2019-01-12T19:56:03.236Z,5.00
2019-01-12T19:58:51.386Z,4.67
2019-01-12T20:01:39.631Z,4.83
2019-01-12T20:04:27.450Z,4.13
2019-01-12T20:07:15.663Z,4.00
2019-01-12T20:10:03.513Z,4.00
2019-01-12T20:12:52.083Z,3.73
2019-01-12T20:15:40.263Z,4.37
2019-01-12T20:18:28.572Z,5.03
2019-01-12T20:21:16.877Z,3.57
2019-01-12T20:24:04.771Z,6.83
2019-01-12T20:26:52.600Z,4.47
2019-01-12T20:29:40.468Z,5.53
2019-01-12T20:33:11.031Z,7.63
2019-01-12T20:36:55.462Z,5.33
2019-01-12T20:40:24.571Z,3.67
2019-01-12T20:43:57.000Z,4.00
2019-01-12T20:47:17.139Z,4.17
2019-01-12T20:50:14.803Z,3.27
2019-01-12T20:53:34.081Z,3.93
2019-01-12T20:56:50.691Z,3.27
2019-01-12T21:00:05.444Z,3.93
2019-01-12T21:03:49.147Z,3.47
2019-01-12T21:07:07.080Z,4.13
2019-01-12T21:10:14.233Z,3.97
2019-01-12T21:13:57.807Z,5.10
2019-01-12T21:17:11.859Z,3.23
2019-01-12T21:19:59.757Z,3.37
2019-01-12T21:22:47.844Z,2.87
2019-01-12T21:25:35.472Z,3.60
2019-01-12T21:28:23.229Z,2.57
2019-01-12T21:31:10.895Z,2.57
2019-01-12T21:33:58.261Z,2.43
2019-01-12T21:36:46.234Z,3.33
2019-01-12T21:39:34.138Z,3.37
2019-01-12T21:42:21.659Z,2.97
2019-01-12T21:45:11.683Z,4.30
2019-01-12T21:47:59.721Z,3.17
2019-01-12T21:50:47.628Z,2.10
2019-01-12T21:53:36.780Z,2.30
2019-01-12T21:56:24.653Z,2.17
2019-01-12T21:59:12.610Z,2.30
2019-01-12T22:02:00.833Z,2.40
2019-01-12T22:04:49.017Z,2.17
2019-01-12T22:07:37.186Z,2.20
2019-01-12T22:10:25.080Z,2.10
2019-01-12T22:13:13.040Z,3.07
2019-01-12T22:16:01.179Z,2.07
2019-01-12T22:18:48.784Z,2.07
2019-01-12T22:21:36.967Z,1.43
2019-01-12T22:24:25.316Z,2.33
2019-01-12T22:27:14.663Z,2.17
2019-01-12T22:30:02.744Z,1.30
2019-01-12T22:32:50.633Z,1.60
2019-01-12T22:35:38.912Z,1.47
2019-01-12T22:38:27.134Z,1.13
2019-01-12T22:41:15.356Z,1.20
2019-01-12T22:44:03.355Z,1.20
2019-01-12T22:46:51.596Z,1.37
2019-01-12T22:49:39.820Z,1.40
2019-01-12T22:52:28.014Z,1.20
2019-01-12T22:55:16.090Z,1.10
2019-01-12T22:58:04.033Z,1.33
2019-01-12T23:01:33.907Z,1.17
2019-01-12T23:04:23.591Z,1.10
2019-01-12T23:07:11.850Z,1.10
2019-01-12T23:10:00.044Z,2.30
2019-01-12T23:12:48.217Z,1.00
2019-01-12T23:15:36.323Z,1.30
2019-01-12T23:18:24.413Z,1.40
2019-01-12T23:21:12.332Z,1.13
2019-01-12T23:24:00.131Z,1.30
2019-01-12T23:26:48.245Z,1.17
2019-01-12T23:29:36.171Z,1.97
2019-01-12T23:32:24.099Z,1.30
2019-01-12T23:35:12.254Z,1.70
2019-01-12T23:38:00.537Z,1.17
2019-01-12T23:40:48.169Z,1.47
2019-01-12T23:43:36.302Z,3.63
2019-01-12T23:46:24.459Z,1.30
2019-01-12T23:49:13.180Z,1.10
2019-01-12T23:52:01.247Z,0.97
2019-01-12T23:54:53.033Z,2.40
2019-01-12T23:57:41.220Z,3.07
